sensor_id;sensor_type;location;lat;lon;timestamp;temperature;humidity
69932;DHT22;57243;52.064;5.116;2023-03-02T00:00:40;18.00;60.10
69932;DHT22;57243;52.064;5.116;2023-03-02T00:03:07;18.00;60.00
69932;DHT22;57243;52.064;5.116;2023-03-02T00:05:33;18.00;60.10
69932;DHT22;57243;52.064;5.116;2023-03-02T00:08:00;18.00;59.90
69932;DHT22;57243;52.064;5.116;2023-03-02T00:10:27;18.00;59.90
69932;DHT22;57243;52.064;5.116;2023-03-02T00:12:53;18.00;60.00
69932;DHT22;57243;52.064;5.116;2023-03-02T00:15:18;18.00;60.10
69932;DHT22;57243;52.064;5.116;2023-03-02T00:17:44;18.00;60.00
69932;DHT22;57243;52.064;5.116;2023-03-02T00:20:10;18.00;59.60
69932;DHT22;57243;52.064;5.116;2023-03-02T00:22:41;18.00;60.00
69932;DHT22;57243;52.064;5.116;2023-03-02T00:25:08;18.00;59.90
69932;DHT22;57243;52.064;5.116;2023-03-02T00:27:34;18.00;60.10
69932;DHT22;57243;52.064;5.116;2023-03-02T00:29:59;17.90;60.20
69932;DHT22;57243;52.064;5.116;2023-03-02T00:32:25;17.90;60.00
69932;DHT22;57243;52.064;5.116;2023-03-02T00:34:51;17.90;60.20
69932;DHT22;57243;52.064;5.116;2023-03-02T00:37:17;17.90;60.40
69932;DHT22;57243;52.064;5.116;2023-03-02T00:39:42;17.90;60.40
69932;DHT22;57243;52.064;5.116;2023-03-02T00:42:08;17.90;60.10
69932;DHT22;57243;52.064;5.116;2023-03-02T00:44:34;17.90;59.90
69932;DHT22;57243;52.064;5.116;2023-03-02T00:46:59;17.90;59.70
69932;DHT22;57243;52.064;5.116;2023-03-02T00:49:25;17.90;60.00
69932;DHT22;57243;52.064;5.116;2023-03-02T00:51:51;17.90;59.70
69932;DHT22;57243;52.064;5.116;2023-03-02T00:54:16;17.90;59.80
69932;DHT22;57243;52.064;5.116;2023-03-02T00:56:42;17.90;59.40
69932;DHT22;57243;52.064;5.116;2023-03-02T00:59:12;17.90;59.70
69932;DHT22;57243;52.064;5.116;2023-03-02T01:01:54;17.90;59.70
69932;DHT22;57243;52.064;5.116;2023-03-02T01:04:25;17.90;59.50
69932;DHT22;57243;52.064;5.116;2023-03-02T01:06:55;17.90;59.40
69932;DHT22;57243;52.064;5.116;2023-03-02T01:09:21;18.00;58.00
69932;DHT22;57243;52.064;5.116;2023-03-02T01:11:46;18.00;59.30
69932;DHT22;57243;52.064;5.116;2023-03-02T01:14:12;18.00;59.60
69932;DHT22;57243;52.064;5.116;2023-03-02T01:16:37;18.10;59.50
69932;DHT22;57243;52.064;5.116;2023-03-02T01:19:03;18.10;59.70
69932;DHT22;57243;52.064;5.116;2023-03-02T01:21:29;18.10;59.90
69932;DHT22;57243;52.064;5.116;2023-03-02T01:23:54;18.10;59.90
69932;DHT22;57243;52.064;5.116;2023-03-02T01:26:20;18.10;60.00
69932;DHT22;57243;52.064;5.116;2023-03-02T01:28:45;18.10;60.30
69932;DHT22;57243;52.064;5.116;2023-03-02T01:31:11;18.10;60.20
69932;DHT22;57243;52.064;5.116;2023-03-02T01:33:36;18.10;60.60
69932;DHT22;57243;52.064;5.116;2023-03-02T01:36:02;18.10;60.50
69932;DHT22;57243;52.064;5.116;2023-03-02T01:38:28;18.10;60.50
69932;DHT22;57243;52.064;5.116;2023-03-02T01:40:54;18.10;60.60
69932;DHT22;57243;52.064;5.116;2023-03-02T01:43:19;18.10;60.50
69932;DHT22;57243;52.064;5.116;2023-03-02T01:45:56;18.10;60.70
69932;DHT22;57243;52.064;5.116;2023-03-02T01:49:10;18.10;60.60
69932;DHT22;57243;52.064;5.116;2023-03-02T01:51:17;18.10;60.60
69932;DHT22;57243;52.064;5.116;2023-03-02T01:53:45;18.10;59.70
69932;DHT22;57243;52.064;5.116;2023-03-02T01:56:15;18.20;59.80
69932;DHT22;57243;52.064;5.116;2023-03-02T01:58:41;18.20;59.90
69932;DHT22;57243;52.064;5.116;2023-03-02T02:01:08;18.10;60.20
69932;DHT22;57243;52.064;5.116;2023-03-02T02:03:42;18.10;60.70
69932;DHT22;57243;52.064;5.116;2023-03-02T02:06:22;18.20;60.60
69932;DHT22;57243;52.064;5.116;2023-03-02T02:08:48;18.10;60.70
69932;DHT22;57243;52.064;5.116;2023-03-02T02:11:15;18.10;60.70
69932;DHT22;57243;52.064;5.116;2023-03-02T02:13:41;18.10;60.90
69932;DHT22;57243;52.064;5.116;2023-03-02T02:16:07;18.20;60.50
69932;DHT22;57243;52.064;5.116;2023-03-02T02:18:35;18.20;60.70
69932;DHT22;57243;52.064;5.116;2023-03-02T02:21:02;18.20;60.40
69932;DHT22;57243;52.064;5.116;2023-03-02T02:29:12;18.20;60.60
69932;DHT22;57243;52.064;5.116;2023-03-02T02:34:45;18.20;60.70
69932;DHT22;57243;52.064;5.116;2023-03-02T02:37:37;18.20;60.70
69932;DHT22;57243;52.064;5.116;2023-03-02T02:40:05;18.20;59.90
69932;DHT22;57243;52.064;5.116;2023-03-02T02:42:38;18.20;59.80
69932;DHT22;57243;52.064;5.116;2023-03-02T02:45:17;18.20;60.10
69932;DHT22;57243;52.064;5.116;2023-03-02T02:47:43;18.20;60.10
69932;DHT22;57243;52.064;5.116;2023-03-02T02:50:20;18.20;59.90
69932;DHT22;57243;52.064;5.116;2023-03-02T02:52:52;18.20;59.60
69932;DHT22;57243;52.064;5.116;2023-03-02T02:55:22;18.20;60.00
69932;DHT22;57243;52.064;5.116;2023-03-02T02:57:50;18.20;59.80
69932;DHT22;57243;52.064;5.116;2023-03-02T03:00:18;18.20;59.90
69932;DHT22;57243;52.064;5.116;2023-03-02T03:02:56;18.20;59.90
69932;DHT22;57243;52.064;5.116;2023-03-02T03:05:23;18.20;60.00
69932;DHT22;57243;52.064;5.116;2023-03-02T03:07:49;18.20;60.10
69932;DHT22;57243;52.064;5.116;2023-03-02T03:10:33;18.20;60.10
69932;DHT22;57243;52.064;5.116;2023-03-02T03:13:04;18.20;59.90
69932;DHT22;57243;52.064;5.116;2023-03-02T03:15:30;18.20;60.00
69932;DHT22;57243;52.064;5.116;2023-03-02T03:17:57;18.20;60.20
69932;DHT22;57243;52.064;5.116;2023-03-02T03:20:23;18.20;60.30
69932;DHT22;57243;52.064;5.116;2023-03-02T03:22:49;18.20;60.40
69932;DHT22;57243;52.064;5.116;2023-03-02T03:25:18;18.20;60.10
69932;DHT22;57243;52.064;5.116;2023-03-02T03:27:44;18.20;60.10
69932;DHT22;57243;52.064;5.116;2023-03-02T03:30:11;18.20;60.20
69932;DHT22;57243;52.064;5.116;2023-03-02T03:32:38;18.20;60.20
69932;DHT22;57243;52.064;5.116;2023-03-02T03:35:04;18.20;60.30
69932;DHT22;57243;52.064;5.116;2023-03-02T03:37:33;18.20;60.10
69932;DHT22;57243;52.064;5.116;2023-03-02T03:39:59;18.20;60.10
69932;DHT22;57243;52.064;5.116;2023-03-02T03:42:25;18.20;60.20
69932;DHT22;57243;52.064;5.116;2023-03-02T03:44:51;18.20;60.10
69932;DHT22;57243;52.064;5.116;2023-03-02T03:47:17;18.20;60.00
69932;DHT22;57243;52.064;5.116;2023-03-02T03:49:42;18.20;60.00
69932;DHT22;57243;52.064;5.116;2023-03-02T03:52:08;18.30;60.00
69932;DHT22;57243;52.064;5.116;2023-03-02T03:54:33;18.30;59.90
69932;DHT22;57243;52.064;5.116;2023-03-02T03:56:59;18.30;59.90
69932;DHT22;57243;52.064;5.116;2023-03-02T03:59:25;18.30;59.90
69932;DHT22;57243;52.064;5.116;2023-03-02T04:01:56;18.30;59.90
69932;DHT22;57243;52.064;5.116;2023-03-02T04:04:26;18.30;59.90
69932;DHT22;57243;52.064;5.116;2023-03-02T04:06:52;18.30;59.90
69932;DHT22;57243;52.064;5.116;2023-03-02T04:09:18;18.30;59.80
69932;DHT22;57243;52.064;5.116;2023-03-02T04:11:45;18.30;59.90
69932;DHT22;57243;52.064;5.116;2023-03-02T04:14:12;18.30;59.80
69932;DHT22;57243;52.064;5.116;2023-03-02T04:16:39;18.30;59.90
69932;DHT22;57243;52.064;5.116;2023-03-02T04:19:05;18.30;59.90
69932;DHT22;57243;52.064;5.116;2023-03-02T04:21:40;18.30;59.90
69932;DHT22;57243;52.064;5.116;2023-03-02T04:24:07;18.30;59.80
69932;DHT22;57243;52.064;5.116;2023-03-02T04:26:34;18.20;59.90
69932;DHT22;57243;52.064;5.116;2023-03-02T04:29:00;18.30;59.70
69932;DHT22;57243;52.064;5.116;2023-03-02T04:31:26;18.30;59.70
69932;DHT22;57243;52.064;5.116;2023-03-02T04:33:51;18.20;59.70
69932;DHT22;57243;52.064;5.116;2023-03-02T04:36:17;18.30;59.80
69932;DHT22;57243;52.064;5.116;2023-03-02T04:38:44;18.20;59.80
69932;DHT22;57243;52.064;5.116;2023-03-02T04:41:10;18.20;59.70
69932;DHT22;57243;52.064;5.116;2023-03-02T04:43:35;18.20;59.70
69932;DHT22;57243;52.064;5.116;2023-03-02T04:46:01;18.20;59.60
69932;DHT22;57243;52.064;5.116;2023-03-02T04:48:27;18.20;59.60
69932;DHT22;57243;52.064;5.116;2023-03-02T04:50:52;18.20;59.70
69932;DHT22;57243;52.064;5.116;2023-03-02T04:53:18;18.20;59.80
69932;DHT22;57243;52.064;5.116;2023-03-02T04:55:44;18.20;59.60
69932;DHT22;57243;52.064;5.116;2023-03-02T04:58:10;18.20;59.60
69932;DHT22;57243;52.064;5.116;2023-03-02T05:00:35;18.30;59.40
69932;DHT22;57243;52.064;5.116;2023-03-02T05:03:02;18.30;59.40
69932;DHT22;57243;52.064;5.116;2023-03-02T05:05:29;18.20;59.40
69932;DHT22;57243;52.064;5.116;2023-03-02T05:07:55;18.30;59.30
69932;DHT22;57243;52.064;5.116;2023-03-02T05:10:26;18.30;59.30
69932;DHT22;57243;52.064;5.116;2023-03-02T05:12:52;18.30;59.30
69932;DHT22;57243;52.064;5.116;2023-03-02T05:15:38;18.30;59.30
69932;DHT22;57243;52.064;5.116;2023-03-02T05:18:06;18.30;59.30
69932;DHT22;57243;52.064;5.116;2023-03-02T05:20:32;18.30;59.30
69932;DHT22;57243;52.064;5.116;2023-03-02T05:23:01;18.30;59.30
69932;DHT22;57243;52.064;5.116;2023-03-02T05:25:28;18.30;59.30
69932;DHT22;57243;52.064;5.116;2023-03-02T05:27:54;18.30;59.30
69932;DHT22;57243;52.064;5.116;2023-03-02T05:30:20;18.30;59.20
69932;DHT22;57243;52.064;5.116;2023-03-02T05:32:47;18.30;59.30
69932;DHT22;57243;52.064;5.116;2023-03-02T05:35:13;18.30;59.10
69932;DHT22;57243;52.064;5.116;2023-03-02T05:37:38;18.30;59.10
69932;DHT22;57243;52.064;5.116;2023-03-02T05:40:08;18.30;59.10
69932;DHT22;57243;52.064;5.116;2023-03-02T05:42:34;18.30;59.00
69932;DHT22;57243;52.064;5.116;2023-03-02T05:45:02;18.30;59.00
69932;DHT22;57243;52.064;5.116;2023-03-02T05:47:28;18.30;59.00
69932;DHT22;57243;52.064;5.116;2023-03-02T05:49:53;18.30;58.90
69932;DHT22;57243;52.064;5.116;2023-03-02T05:52:19;18.30;58.90
69932;DHT22;57243;52.064;5.116;2023-03-02T05:54:44;18.30;59.00
69932;DHT22;57243;52.064;5.116;2023-03-02T05:57:10;18.30;59.00
69932;DHT22;57243;52.064;5.116;2023-03-02T05:59:36;18.30;58.90
69932;DHT22;57243;52.064;5.116;2023-03-02T06:02:02;18.30;59.20
69932;DHT22;57243;52.064;5.116;2023-03-02T06:04:28;18.40;59.20
69932;DHT22;57243;52.064;5.116;2023-03-02T06:06:54;18.40;59.20
69932;DHT22;57243;52.064;5.116;2023-03-02T06:09:20;18.40;59.20
69932;DHT22;57243;52.064;5.116;2023-03-02T06:11:47;18.40;59.00
69932;DHT22;57243;52.064;5.116;2023-03-02T06:14:12;18.40;59.10
69932;DHT22;57243;52.064;5.116;2023-03-02T06:16:38;18.40;59.10
69932;DHT22;57243;52.064;5.116;2023-03-02T06:19:04;18.40;59.00
69932;DHT22;57243;52.064;5.116;2023-03-02T06:21:29;18.40;59.10
69932;DHT22;57243;52.064;5.116;2023-03-02T06:23:55;18.40;59.10
69932;DHT22;57243;52.064;5.116;2023-03-02T06:26:20;18.40;59.10
69932;DHT22;57243;52.064;5.116;2023-03-02T06:28:46;18.40;59.10
69932;DHT22;57243;52.064;5.116;2023-03-02T06:31:12;18.40;59.30
69932;DHT22;57243;52.064;5.116;2023-03-02T06:33:37;18.40;59.00
69932;DHT22;57243;52.064;5.116;2023-03-02T06:36:03;18.40;59.10
69932;DHT22;57243;52.064;5.116;2023-03-02T06:38:28;18.40;58.90
69932;DHT22;57243;52.064;5.116;2023-03-02T06:40:54;18.40;58.90
69932;DHT22;57243;52.064;5.116;2023-03-02T06:43:20;18.40;58.80
69932;DHT22;57243;52.064;5.116;2023-03-02T06:45:45;18.40;58.90
69932;DHT22;57243;52.064;5.116;2023-03-02T06:48:11;18.40;58.90
69932;DHT22;57243;52.064;5.116;2023-03-02T06:50:37;18.40;59.60
69932;DHT22;57243;52.064;5.116;2023-03-02T06:53:03;18.40;59.10
69932;DHT22;57243;52.064;5.116;2023-03-02T06:55:28;18.30;58.60
69932;DHT22;57243;52.064;5.116;2023-03-02T06:57:54;18.30;58.80
69932;DHT22;57243;52.064;5.116;2023-03-02T07:00:20;18.20;57.70
69932;DHT22;57243;52.064;5.116;2023-03-02T07:02:51;18.20;58.30
69932;DHT22;57243;52.064;5.116;2023-03-02T07:05:17;18.20;58.20
69932;DHT22;57243;52.064;5.116;2023-03-02T07:07:42;18.20;58.10
69932;DHT22;57243;52.064;5.116;2023-03-02T07:10:09;18.20;58.00
69932;DHT22;57243;52.064;5.116;2023-03-02T07:12:36;18.20;58.00
69932;DHT22;57243;52.064;5.116;2023-03-02T07:15:02;18.20;57.80
69932;DHT22;57243;52.064;5.116;2023-03-02T07:17:28;18.20;57.70
69932;DHT22;57243;52.064;5.116;2023-03-02T07:19:53;18.30;57.20
69932;DHT22;57243;52.064;5.116;2023-03-02T07:22:19;18.30;57.50
69932;DHT22;57243;52.064;5.116;2023-03-02T07:24:45;18.30;57.30
69932;DHT22;57243;52.064;5.116;2023-03-02T07:27:11;18.30;56.50
69932;DHT22;57243;52.064;5.116;2023-03-02T07:29:36;18.30;56.80
69932;DHT22;57243;52.064;5.116;2023-03-02T07:32:02;18.30;57.20
69932;DHT22;57243;52.064;5.116;2023-03-02T07:34:27;18.30;56.60
69932;DHT22;57243;52.064;5.116;2023-03-02T07:36:53;18.30;56.80
69932;DHT22;57243;52.064;5.116;2023-03-02T07:39:19;18.40;56.90
69932;DHT22;57243;52.064;5.116;2023-03-02T07:41:45;18.40;57.10
69932;DHT22;57243;52.064;5.116;2023-03-02T07:44:10;18.30;57.10
69932;DHT22;57243;52.064;5.116;2023-03-02T07:46:36;18.30;56.80
69932;DHT22;57243;52.064;5.116;2023-03-02T07:49:01;18.30;56.40
69932;DHT22;57243;52.064;5.116;2023-03-02T07:51:27;18.30;56.50
69932;DHT22;57243;52.064;5.116;2023-03-02T07:53:53;18.30;56.40
69932;DHT22;57243;52.064;5.116;2023-03-02T07:56:18;18.30;56.10
69932;DHT22;57243;52.064;5.116;2023-03-02T07:58:45;18.20;56.20
69932;DHT22;57243;52.064;5.116;2023-03-02T08:01:11;18.20;55.50
69932;DHT22;57243;52.064;5.116;2023-03-02T08:03:37;18.20;55.70
69932;DHT22;57243;52.064;5.116;2023-03-02T08:06:10;18.20;55.60
69932;DHT22;57243;52.064;5.116;2023-03-02T08:08:36;18.20;55.60
69932;DHT22;57243;52.064;5.116;2023-03-02T08:11:07;18.20;55.80
69932;DHT22;57243;52.064;5.116;2023-03-02T08:13:33;18.20;56.10
69932;DHT22;57243;52.064;5.116;2023-03-02T08:16:00;18.20;56.10
69932;DHT22;57243;52.064;5.116;2023-03-02T08:18:26;18.20;56.00
69932;DHT22;57243;52.064;5.116;2023-03-02T08:20:52;18.20;56.30
69932;DHT22;57243;52.064;5.116;2023-03-02T08:23:18;18.20;56.20
69932;DHT22;57243;52.064;5.116;2023-03-02T08:25:44;18.20;56.20
69932;DHT22;57243;52.064;5.116;2023-03-02T08:28:10;18.20;55.90
69932;DHT22;57243;52.064;5.116;2023-03-02T08:30:35;18.20;55.90
69932;DHT22;57243;52.064;5.116;2023-03-02T08:33:01;18.30;56.20
69932;DHT22;57243;52.064;5.116;2023-03-02T08:35:26;18.40;56.20
69932;DHT22;57243;52.064;5.116;2023-03-02T08:37:52;18.40;56.40
69932;DHT22;57243;52.064;5.116;2023-03-02T08:40:18;18.40;56.40
69932;DHT22;57243;52.064;5.116;2023-03-02T08:42:44;18.40;56.30
69932;DHT22;57243;52.064;5.116;2023-03-02T08:45:10;18.50;56.30
69932;DHT22;57243;52.064;5.116;2023-03-02T08:47:35;18.50;56.30
69932;DHT22;57243;52.064;5.116;2023-03-02T08:50:01;18.50;56.30
69932;DHT22;57243;52.064;5.116;2023-03-02T08:52:27;18.60;56.30
69932;DHT22;57243;52.064;5.116;2023-03-02T08:54:52;18.60;56.40
69932;DHT22;57243;52.064;5.116;2023-03-02T08:57:18;18.60;56.40
69932;DHT22;57243;52.064;5.116;2023-03-02T08:59:44;18.60;56.50
69932;DHT22;57243;52.064;5.116;2023-03-02T09:02:10;18.60;56.50
69932;DHT22;57243;52.064;5.116;2023-03-02T09:04:36;18.70;56.40
69932;DHT22;57243;52.064;5.116;2023-03-02T09:07:02;18.70;56.80
69932;DHT22;57243;52.064;5.116;2023-03-02T09:09:28;18.70;56.60
69932;DHT22;57243;52.064;5.116;2023-03-02T09:11:53;18.70;57.40
69932;DHT22;57243;52.064;5.116;2023-03-02T09:14:19;18.70;57.50
69932;DHT22;57243;52.064;5.116;2023-03-02T09:16:44;18.70;57.60
69932;DHT22;57243;52.064;5.116;2023-03-02T09:19:12;18.70;57.90
69932;DHT22;57243;52.064;5.116;2023-03-02T09:21:38;18.70;57.90
69932;DHT22;57243;52.064;5.116;2023-03-02T09:24:04;18.70;57.90
69932;DHT22;57243;52.064;5.116;2023-03-02T09:26:29;18.70;58.10
69932;DHT22;57243;52.064;5.116;2023-03-02T09:28:55;18.70;58.30
69932;DHT22;57243;52.064;5.116;2023-03-02T09:31:22;18.70;58.30
69932;DHT22;57243;52.064;5.116;2023-03-02T09:33:47;18.70;58.50
69932;DHT22;57243;52.064;5.116;2023-03-02T09:36:22;18.70;58.80
69932;DHT22;57243;52.064;5.116;2023-03-02T09:38:48;18.70;58.60
69932;DHT22;57243;52.064;5.116;2023-03-02T09:44:21;18.60;58.00
69932;DHT22;57243;52.064;5.116;2023-03-02T09:46:59;18.50;58.20
69932;DHT22;57243;52.064;5.116;2023-03-02T09:52:33;18.50;58.90
69932;DHT22;57243;52.064;5.116;2023-03-02T09:55:14;18.50;58.90
69932;DHT22;57243;52.064;5.116;2023-03-02T09:57:41;18.50;59.20
69932;DHT22;57243;52.064;5.116;2023-03-02T10:00:36;18.50;59.70
69932;DHT22;57243;52.064;5.116;2023-03-02T10:03:10;18.50;58.60
69932;DHT22;57243;52.064;5.116;2023-03-02T10:05:43;18.50;58.40
69932;DHT22;57243;52.064;5.116;2023-03-02T10:08:14;18.50;58.40
69932;DHT22;57243;52.064;5.116;2023-03-02T10:10:48;18.50;58.50
69932;DHT22;57243;52.064;5.116;2023-03-02T10:18:50;18.50;58.50
69932;DHT22;57243;52.064;5.116;2023-03-02T10:24:07;18.50;58.40
69932;DHT22;57243;52.064;5.116;2023-03-02T10:26:42;18.50;58.20
69932;DHT22;57243;52.064;5.116;2023-03-02T10:29:23;18.50;58.50
69932;DHT22;57243;52.064;5.116;2023-03-02T10:32:21;18.50;58.70
69932;DHT22;57243;52.064;5.116;2023-03-02T10:34:48;18.50;58.20
69932;DHT22;57243;52.064;5.116;2023-03-02T10:37:23;18.50;58.30
69932;DHT22;57243;52.064;5.116;2023-03-02T10:39:52;18.50;58.80
69932;DHT22;57243;52.064;5.116;2023-03-02T10:42:34;18.50;58.50
69932;DHT22;57243;52.064;5.116;2023-03-02T10:45:18;18.50;58.60
69932;DHT22;57243;52.064;5.116;2023-03-02T10:48:02;18.60;58.50
69932;DHT22;57243;52.064;5.116;2023-03-02T10:50:28;18.60;58.40
69932;DHT22;57243;52.064;5.116;2023-03-02T10:52:55;18.60;58.40
69932;DHT22;57243;52.064;5.116;2023-03-02T10:55:21;18.60;58.90
69932;DHT22;57243;52.064;5.116;2023-03-02T11:00:26;18.60;58.90
69932;DHT22;57243;52.064;5.116;2023-03-02T11:02:56;18.60;58.70
69932;DHT22;57243;52.064;5.116;2023-03-02T11:10:24;18.60;58.70
69932;DHT22;57243;52.064;5.116;2023-03-02T11:12:51;18.60;58.50
69932;DHT22;57243;52.064;5.116;2023-03-02T11:15:26;18.60;58.90
69932;DHT22;57243;52.064;5.116;2023-03-02T11:20:33;18.60;60.70
69932;DHT22;57243;52.064;5.116;2023-03-02T11:23:19;18.60;60.30
69932;DHT22;57243;52.064;5.116;2023-03-02T11:25:52;18.70;61.00
69932;DHT22;57243;52.064;5.116;2023-03-02T11:31:12;18.80;61.40
69932;DHT22;57243;52.064;5.116;2023-03-02T11:33:43;18.80;61.70
69932;DHT22;57243;52.064;5.116;2023-03-02T11:36:15;18.90;62.00
69932;DHT22;57243;52.064;5.116;2023-03-02T11:38:47;18.90;62.40
69932;DHT22;57243;52.064;5.116;2023-03-02T11:41:25;19.00;62.50
69932;DHT22;57243;52.064;5.116;2023-03-02T11:44:01;19.00;62.90
69932;DHT22;57243;52.064;5.116;2023-03-02T11:46:31;19.00;62.90
69932;DHT22;57243;52.064;5.116;2023-03-02T11:49:14;19.00;62.40
69932;DHT22;57243;52.064;5.116;2023-03-02T11:51:57;19.00;62.60
69932;DHT22;57243;52.064;5.116;2023-03-02T11:54:32;19.00;62.60
69932;DHT22;57243;52.064;5.116;2023-03-02T11:57:01;19.10;62.30
69932;DHT22;57243;52.064;5.116;2023-03-02T11:59:27;19.10;62.20
69932;DHT22;57243;52.064;5.116;2023-03-02T12:01:54;19.00;62.10
69932;DHT22;57243;52.064;5.116;2023-03-02T12:04:33;19.00;62.30
69932;DHT22;57243;52.064;5.116;2023-03-02T12:07:01;19.00;62.00
69932;DHT22;57243;52.064;5.116;2023-03-02T12:09:35;19.00;62.40
69932;DHT22;57243;52.064;5.116;2023-03-02T12:15:01;19.00;62.60
69932;DHT22;57243;52.064;5.116;2023-03-02T12:20:08;19.10;62.80
69932;DHT22;57243;52.064;5.116;2023-03-02T12:22:35;19.10;63.00
69932;DHT22;57243;52.064;5.116;2023-03-02T12:27:52;19.10;63.10
69932;DHT22;57243;52.064;5.116;2023-03-02T12:35:36;19.20;63.30
69932;DHT22;57243;52.064;5.116;2023-03-02T12:38:32;19.20;63.60
69932;DHT22;57243;52.064;5.116;2023-03-02T12:41:09;19.20;63.40
69932;DHT22;57243;52.064;5.116;2023-03-02T12:46:44;19.20;62.60
69932;DHT22;57243;52.064;5.116;2023-03-02T12:49:31;19.20;62.40
69932;DHT22;57243;52.064;5.116;2023-03-02T12:52:02;19.20;62.40
69932;DHT22;57243;52.064;5.116;2023-03-02T12:54:32;19.20;62.20
69932;DHT22;57243;52.064;5.116;2023-03-02T12:57:18;19.20;62.10
69932;DHT22;57243;52.064;5.116;2023-03-02T12:59:56;19.20;61.90
69932;DHT22;57243;52.064;5.116;2023-03-02T13:02:24;19.20;61.90
69932;DHT22;57243;52.064;5.116;2023-03-02T13:04:54;19.20;61.60
69932;DHT22;57243;52.064;5.116;2023-03-02T13:07:24;19.30;62.20
69932;DHT22;57243;52.064;5.116;2023-03-02T13:09:52;19.30;62.30
69932;DHT22;57243;52.064;5.116;2023-03-02T13:12:18;19.40;62.60
69932;DHT22;57243;52.064;5.116;2023-03-02T13:14:49;19.40;62.60
69932;DHT22;57243;52.064;5.116;2023-03-02T13:17:27;19.40;62.70
69932;DHT22;57243;52.064;5.116;2023-03-02T13:19:56;19.50;62.90
69932;DHT22;57243;52.064;5.116;2023-03-02T13:22:22;19.50;62.60
69932;DHT22;57243;52.064;5.116;2023-03-02T13:24:53;19.50;61.90
69932;DHT22;57243;52.064;5.116;2023-03-02T13:27:21;19.50;62.90
69932;DHT22;57243;52.064;5.116;2023-03-02T13:29:47;19.60;62.30
69932;DHT22;57243;52.064;5.116;2023-03-02T13:32:25;19.60;62.70
69932;DHT22;57243;52.064;5.116;2023-03-02T13:34:55;19.70;63.00
69932;DHT22;57243;52.064;5.116;2023-03-02T13:37:35;19.70;63.20
69932;DHT22;57243;52.064;5.116;2023-03-02T13:40:06;19.70;63.30
69932;DHT22;57243;52.064;5.116;2023-03-02T13:42:39;19.80;63.30
69932;DHT22;57243;52.064;5.116;2023-03-02T13:45:26;19.80;63.30
69932;DHT22;57243;52.064;5.116;2023-03-02T13:47:53;19.80;63.30
69932;DHT22;57243;52.064;5.116;2023-03-02T13:50:22;19.90;63.40
69932;DHT22;57243;52.064;5.116;2023-03-02T13:52:49;19.90;63.30
69932;DHT22;57243;52.064;5.116;2023-03-02T13:55:16;19.90;63.30
69932;DHT22;57243;52.064;5.116;2023-03-02T13:57:43;19.90;63.30
69932;DHT22;57243;52.064;5.116;2023-03-02T14:00:15;19.90;63.20
69932;DHT22;57243;52.064;5.116;2023-03-02T14:02:43;19.90;63.20
69932;DHT22;57243;52.064;5.116;2023-03-02T14:05:19;20.00;63.20
69932;DHT22;57243;52.064;5.116;2023-03-02T14:07:45;20.00;63.10
69932;DHT22;57243;52.064;5.116;2023-03-02T14:10:13;20.00;63.00
69932;DHT22;57243;52.064;5.116;2023-03-02T14:12:41;20.00;63.00
69932;DHT22;57243;52.064;5.116;2023-03-02T14:15:13;20.00;63.10
69932;DHT22;57243;52.064;5.116;2023-03-02T14:17:39;20.00;63.00
69932;DHT22;57243;52.064;5.116;2023-03-02T14:20:13;20.10;63.00
69932;DHT22;57243;52.064;5.116;2023-03-02T14:22:38;20.10;63.00
69932;DHT22;57243;52.064;5.116;2023-03-02T14:25:05;20.10;62.90
69932;DHT22;57243;52.064;5.116;2023-03-02T14:27:31;20.10;62.90
69932;DHT22;57243;52.064;5.116;2023-03-02T14:29:58;20.10;62.80
69932;DHT22;57243;52.064;5.116;2023-03-02T14:32:24;20.10;62.80
69932;DHT22;57243;52.064;5.116;2023-03-02T14:34:50;20.10;62.70
69932;DHT22;57243;52.064;5.116;2023-03-02T14:37:17;20.10;62.70
69932;DHT22;57243;52.064;5.116;2023-03-02T14:39:47;20.10;62.60
69932;DHT22;57243;52.064;5.116;2023-03-02T14:42:17;20.10;62.70
69932;DHT22;57243;52.064;5.116;2023-03-02T14:44:44;20.10;62.70
69932;DHT22;57243;52.064;5.116;2023-03-02T14:47:10;20.10;62.70
69932;DHT22;57243;52.064;5.116;2023-03-02T14:49:36;20.00;62.80
69932;DHT22;57243;52.064;5.116;2023-03-02T14:52:11;20.10;62.80
69932;DHT22;57243;52.064;5.116;2023-03-02T14:54:48;20.00;62.80
69932;DHT22;57243;52.064;5.116;2023-03-02T14:57:23;20.00;62.80
69932;DHT22;57243;52.064;5.116;2023-03-02T14:59:53;20.00;62.50
69932;DHT22;57243;52.064;5.116;2023-03-02T15:02:20;20.00;62.60
69932;DHT22;57243;52.064;5.116;2023-03-02T15:04:46;20.00;62.80
69932;DHT22;57243;52.064;5.116;2023-03-02T15:07:13;20.00;62.90
69932;DHT22;57243;52.064;5.116;2023-03-02T15:09:41;20.00;63.00
69932;DHT22;57243;52.064;5.116;2023-03-02T15:12:10;19.90;63.00
69932;DHT22;57243;52.064;5.116;2023-03-02T15:14:35;19.90;63.00
69932;DHT22;57243;52.064;5.116;2023-03-02T15:17:02;20.00;62.80
69932;DHT22;57243;52.064;5.116;2023-03-02T15:19:27;20.00;62.90
69932;DHT22;57243;52.064;5.116;2023-03-02T15:21:53;20.00;62.80
69932;DHT22;57243;52.064;5.116;2023-03-02T15:24:19;20.00;63.30
69932;DHT22;57243;52.064;5.116;2023-03-02T15:26:52;20.00;63.10
69932;DHT22;57243;52.064;5.116;2023-03-02T15:29:18;20.00;63.10
69932;DHT22;57243;52.064;5.116;2023-03-02T15:31:44;19.90;63.10
69932;DHT22;57243;52.064;5.116;2023-03-02T15:34:11;19.90;63.20
69932;DHT22;57243;52.064;5.116;2023-03-02T15:36:37;19.90;63.30
69932;DHT22;57243;52.064;5.116;2023-03-02T15:39:04;19.90;63.40
69932;DHT22;57243;52.064;5.116;2023-03-02T15:41:32;19.90;63.30
69932;DHT22;57243;52.064;5.116;2023-03-02T15:43:57;19.80;63.40
69932;DHT22;57243;52.064;5.116;2023-03-02T15:46:23;19.80;63.50
69932;DHT22;57243;52.064;5.116;2023-03-02T15:48:49;19.80;63.40
69932;DHT22;57243;52.064;5.116;2023-03-02T15:51:18;19.80;63.30
69932;DHT22;57243;52.064;5.116;2023-03-02T15:53:44;19.80;63.30
69932;DHT22;57243;52.064;5.116;2023-03-02T15:56:12;19.70;63.30
69932;DHT22;57243;52.064;5.116;2023-03-02T15:58:38;19.70;63.30
69932;DHT22;57243;52.064;5.116;2023-03-02T16:01:08;19.70;63.30
69932;DHT22;57243;52.064;5.116;2023-03-02T16:03:35;19.70;63.20
69932;DHT22;57243;52.064;5.116;2023-03-02T16:06:00;19.70;63.10
69932;DHT22;57243;52.064;5.116;2023-03-02T16:08:27;19.70;63.30
69932;DHT22;57243;52.064;5.116;2023-03-02T16:11:00;19.80;63.10
69932;DHT22;57243;52.064;5.116;2023-03-02T16:13:27;19.70;63.10
69932;DHT22;57243;52.064;5.116;2023-03-02T16:15:55;19.70;63.10
69932;DHT22;57243;52.064;5.116;2023-03-02T16:18:21;19.70;63.20
69932;DHT22;57243;52.064;5.116;2023-03-02T16:20:46;19.70;63.40
69932;DHT22;57243;52.064;5.116;2023-03-02T16:23:12;19.70;63.10
69932;DHT22;57243;52.064;5.116;2023-03-02T16:25:41;19.60;63.10
69932;DHT22;57243;52.064;5.116;2023-03-02T16:28:13;19.60;63.20
69932;DHT22;57243;52.064;5.116;2023-03-02T16:30:40;19.50;63.20